createdAt,value
2022-10-29T00:00:59.934Z,79.80
2022-10-29T00:03:27.050Z,53.08
2022-10-29T00:05:57.753Z,61.63
2022-10-29T00:08:25.065Z,46.88
2022-10-29T00:10:52.016Z,43.87
2022-10-29T00:13:18.992Z,55.63
2022-10-29T00:15:45.819Z,81.87
2022-10-29T00:18:12.734Z,99.57
2022-10-29T00:20:39.603Z,54.45
2022-10-29T00:23:06.416Z,54.70
2022-10-29T00:25:33.290Z,59.15
2022-10-29T00:28:00.255Z,102.70
2022-10-29T00:30:27.129Z,86.15
2022-10-29T00:32:54.353Z,101.97
2022-10-29T00:35:21.417Z,97.22
2022-10-29T00:37:48.311Z,94.13
2022-10-29T00:40:15.258Z,153.90
2022-10-29T00:42:42.126Z,143.27
2022-10-29T00:45:18.098Z,206.93
2022-10-29T00:47:45.192Z,174.73
2022-10-29T00:50:14.112Z,152.50
2022-10-29T00:52:45.085Z,153.48
2022-10-29T00:55:15.877Z,221.80
2022-10-29T00:57:48.839Z,145.07
2022-10-29T01:00:17.516Z,167.13
2022-10-29T01:02:45.895Z,97.22
2022-10-29T01:05:19.422Z,163.73
2022-10-29T01:07:46.323Z,125.62
2022-10-29T01:10:13.567Z,111.00
2022-10-29T01:12:55.877Z,110.47
2022-10-29T01:15:48.047Z,78.20
2022-10-29T01:18:18.419Z,86.00
2022-10-29T01:21:17.689Z,111.22
2022-10-29T01:24:12.509Z,87.43
2022-10-29T01:27:07.301Z,161.25
2022-10-29T01:29:43.267Z,165.20
2022-10-29T01:32:15.700Z,169.40
2022-10-29T01:34:48.229Z,100.97
2022-10-29T01:37:22.695Z,61.65
2022-10-29T01:39:59.277Z,70.57
2022-10-29T01:42:40.008Z,64.75
2022-10-29T01:45:33.314Z,77.87
2022-10-29T01:48:05.040Z,42.65
2022-10-29T01:50:32.994Z,48.78
2022-10-29T01:53:00.895Z,41.88
2022-10-29T01:55:35.474Z,77.15
2022-10-29T01:58:05.556Z,56.00
2022-10-29T02:00:58.895Z,83.07
2022-10-29T02:03:39.799Z,76.30
2022-10-29T02:06:25.570Z,47.53
2022-10-29T02:09:04.607Z,68.22
2022-10-29T02:11:38.954Z,84.70
2022-10-29T02:14:15.910Z,60.42
2022-10-29T02:16:42.908Z,58.55
2022-10-29T02:19:09.772Z,66.20
2022-10-29T02:21:36.595Z,70.87
2022-10-29T02:24:03.483Z,54.25
2022-10-29T02:26:30.306Z,60.90
2022-10-29T02:28:57.197Z,66.07
2022-10-29T02:31:24.042Z,42.25
2022-10-29T02:33:50.943Z,48.47
2022-10-29T02:36:17.807Z,40.95
2022-10-29T02:38:44.638Z,64.40
2022-10-29T02:41:11.470Z,62.35
2022-10-29T02:43:38.317Z,40.30
2022-10-29T02:46:16.391Z,38.65
2022-10-29T02:48:43.286Z,41.88
2022-10-29T02:51:10.590Z,55.95
2022-10-29T02:53:37.461Z,44.05
2022-10-29T02:56:05.441Z,57.85
2022-10-29T02:58:32.279Z,51.00
2022-10-29T03:00:59.157Z,32.75
2022-10-29T03:03:26.144Z,39.92
2022-10-29T03:05:53.443Z,27.87
2022-10-29T03:08:20.375Z,29.77
2022-10-29T03:10:47.283Z,33.97
2022-10-29T03:13:14.972Z,32.67
2022-10-29T03:15:45.049Z,28.50
2022-10-29T03:18:12.239Z,37.33
2022-10-29T03:20:39.328Z,32.65
2022-10-29T03:23:06.229Z,34.20
2022-10-29T03:25:33.114Z,31.02
2022-10-29T03:28:00.075Z,32.75
2022-10-29T03:30:26.961Z,30.85
2022-10-29T03:32:54.147Z,38.92
2022-10-29T03:35:21.552Z,44.65
2022-10-29T03:37:52.474Z,29.80
2022-10-29T03:40:19.941Z,29.87
2022-10-29T03:42:46.921Z,29.08
2022-10-29T03:45:14.558Z,29.00
2022-10-29T03:47:41.454Z,38.25
2022-10-29T03:50:09.052Z,26.50
2022-10-29T03:52:35.972Z,37.10
2022-10-29T03:55:02.862Z,37.25
2022-10-29T03:57:29.795Z,27.30
2022-10-29T03:59:56.648Z,40.35
2022-10-29T04:02:24.550Z,49.80
2022-10-29T04:04:51.546Z,33.53
2022-10-29T04:07:18.713Z,25.25
2022-10-29T04:09:45.519Z,25.02
2022-10-29T04:12:12.358Z,37.05
2022-10-29T04:14:44.475Z,47.20
2022-10-29T04:17:12.938Z,53.38
2022-10-29T04:19:39.819Z,60.38
2022-10-29T04:30:27.573Z,42.42
2022-10-29T04:32:58.897Z,32.47
2022-10-29T04:35:27.543Z,35.00
2022-10-29T04:37:57.992Z,58.03
2022-10-29T04:40:25.217Z,44.63
2022-10-29T04:42:52.169Z,48.85
2022-10-29T04:45:19.167Z,32.65
2022-10-29T04:47:46.324Z,43.60
2022-10-29T04:50:13.653Z,50.97
2022-10-29T04:52:41.166Z,48.17
2022-10-29T04:55:08.517Z,20.92
2022-10-29T04:57:35.367Z,27.80
2022-10-29T05:00:02.335Z,29.73
2022-10-29T05:02:29.199Z,22.33
2022-10-29T05:04:56.191Z,32.47
2022-10-29T05:07:23.042Z,30.75
2022-10-29T05:09:49.899Z,28.17
2022-10-29T05:12:16.740Z,40.80
2022-10-29T05:14:43.594Z,32.47
2022-10-29T05:17:10.428Z,47.20
2022-10-29T05:19:37.300Z,52.20
2022-10-29T05:22:04.335Z,39.13
2022-10-29T05:24:31.167Z,45.20
2022-10-29T05:26:57.997Z,22.95
2022-10-29T05:29:24.840Z,24.08
2022-10-29T05:31:54.015Z,25.10
2022-10-29T05:34:21.708Z,34.15
2022-10-29T05:36:48.889Z,30.48
2022-10-29T05:39:15.983Z,28.20
2022-10-29T05:41:42.969Z,30.00
2022-10-29T05:44:09.835Z,42.05
2022-10-29T05:46:36.722Z,43.97
2022-10-29T05:49:04.096Z,50.30
2022-10-29T05:51:30.970Z,43.80
2022-10-29T05:53:57.819Z,46.13
2022-10-29T05:56:24.669Z,49.25
2022-10-29T05:58:51.719Z,71.53
2022-10-29T06:01:19.970Z,26.30
2022-10-29T06:03:47.521Z,28.87
2022-10-29T06:06:14.608Z,36.03
2022-10-29T06:08:41.654Z,45.33
2022-10-29T06:11:08.597Z,56.67
2022-10-29T06:13:35.549Z,45.80
2022-10-29T06:16:02.570Z,53.55
2022-10-29T06:18:29.775Z,49.33
2022-10-29T06:21:00.705Z,48.42
2022-10-29T06:23:28.512Z,49.60
2022-10-29T06:25:55.424Z,55.67
2022-10-29T06:28:22.276Z,34.47
2022-10-29T06:30:50.475Z,33.17
2022-10-29T06:33:18.808Z,40.15
2022-10-29T06:35:45.737Z,27.13
2022-10-29T06:38:12.848Z,41.83
2022-10-29T06:40:40.675Z,37.55
2022-10-29T06:43:10.090Z,54.80
2022-10-29T06:45:37.130Z,46.45
2022-10-29T06:48:05.644Z,42.15
2022-10-29T06:50:32.525Z,75.53
2022-10-29T06:53:06.818Z,44.50
2022-10-29T06:55:34.471Z,56.22
2022-10-29T06:58:09.484Z,31.55
2022-10-29T07:00:36.475Z,39.35
2022-10-29T07:03:06.400Z,23.35
2022-10-29T07:05:33.607Z,47.80
2022-10-29T07:08:01.336Z,31.25
2022-10-29T07:10:30.284Z,29.23
2022-10-29T07:12:57.165Z,33.15
2022-10-29T07:15:27.497Z,26.00
2022-10-29T07:18:02.994Z,24.42
2022-10-29T07:20:33.404Z,36.85
2022-10-29T07:23:03.143Z,28.77
2022-10-29T07:25:31.063Z,24.17
2022-10-29T07:28:20.919Z,25.23
2022-10-29T07:30:48.693Z,40.38
2022-10-29T07:33:16.589Z,41.35
2022-10-29T07:35:44.842Z,43.92
2022-10-29T07:38:12.837Z,42.88
2022-10-29T07:40:40.704Z,60.90
2022-10-29T07:43:08.785Z,50.03
2022-10-29T07:45:35.634Z,41.80
2022-10-29T07:48:04.892Z,44.83
2022-10-29T07:50:32.331Z,38.00
2022-10-29T07:53:03.018Z,43.25
2022-10-29T07:58:04.125Z,31.67
2022-10-29T08:00:32.779Z,44.78
2022-10-29T08:02:59.675Z,77.32
2022-10-29T08:05:27.709Z,32.42
2022-10-29T08:07:55.712Z,41.60
2022-10-29T08:10:24.245Z,21.27
2022-10-29T08:12:56.638Z,35.63
2022-10-29T08:15:24.121Z,61.58
2022-10-29T08:17:51.225Z,22.55
2022-10-29T08:20:18.499Z,27.77
2022-10-29T08:22:45.391Z,17.77
2022-10-29T08:25:12.758Z,24.48
2022-10-29T08:27:39.694Z,26.70
2022-10-29T08:30:07.643Z,26.65
2022-10-29T08:32:34.935Z,26.70
2022-10-29T08:35:02.365Z,17.08
2022-10-29T08:37:30.117Z,16.12
2022-10-29T08:39:56.987Z,18.48
2022-10-29T08:42:36.670Z,22.90
2022-10-29T08:45:12.779Z,19.48
2022-10-29T08:47:55.321Z,16.27
2022-10-29T08:50:24.679Z,16.23
2022-10-29T08:52:58.752Z,20.60
2022-10-29T08:55:38.749Z,23.02
2022-10-29T08:58:31.256Z,21.35
2022-10-29T09:00:58.623Z,18.05
2022-10-29T09:03:29.749Z,17.23
2022-10-29T09:06:10.622Z,18.00
2022-10-29T09:09:05.222Z,19.87
2022-10-29T09:11:59.767Z,18.23
2022-10-29T09:14:33.441Z,19.90
2022-10-29T09:17:21.388Z,23.77
2022-10-29T09:19:48.145Z,20.35
2022-10-29T09:22:24.201Z,20.70
2022-10-29T09:24:54.084Z,22.92
2022-10-29T09:27:25.149Z,22.60
2022-10-29T09:30:08.293Z,23.27
2022-10-29T09:32:53.308Z,23.52
2022-10-29T09:35:20.497Z,19.70
2022-10-29T09:37:55.239Z,20.48
2022-10-29T09:40:31.001Z,20.83
2022-10-29T09:42:59.867Z,20.95
2022-10-29T09:45:41.185Z,18.50
2022-10-29T09:48:35.428Z,20.77
2022-10-29T09:51:37.803Z,20.30
2022-10-29T09:54:04.940Z,21.85
2022-10-29T09:56:31.925Z,22.17
2022-10-29T09:59:22.869Z,21.20
2022-10-29T10:01:49.908Z,19.75
2022-10-29T10:04:41.381Z,19.27
2022-10-29T10:07:12.880Z,19.65
2022-10-29T10:09:59.442Z,18.52
2022-10-29T10:12:27.334Z,24.23
2022-10-29T10:15:05.207Z,19.45
2022-10-29T10:17:55.725Z,20.05
2022-10-29T10:20:44.387Z,18.92
2022-10-29T10:23:29.218Z,22.20
2022-10-29T10:26:03.723Z,19.48
2022-10-29T10:28:35.580Z,19.45
2022-10-29T10:31:11.119Z,18.37
2022-10-29T10:33:49.639Z,18.15
2022-10-29T10:36:16.966Z,20.37
2022-10-29T10:38:48.062Z,19.83
2022-10-29T10:41:16.815Z,19.75
2022-10-29T10:43:45.227Z,20.45
2022-10-29T10:46:22.725Z,22.05
2022-10-29T10:49:06.635Z,19.73
2022-10-29T10:51:34.810Z,22.48
2022-10-29T10:54:05.526Z,18.67
2022-10-29T10:56:32.905Z,17.58
2022-10-29T10:59:03.385Z,18.80
2022-10-29T11:01:33.040Z,19.35
2022-10-29T11:04:09.995Z,20.00
2022-10-29T11:06:40.414Z,17.62
2022-10-29T11:09:35.859Z,17.35
2022-10-29T11:12:09.944Z,17.12
2022-10-29T11:14:46.664Z,19.10
2022-10-29T11:17:40.117Z,18.02
2022-10-29T11:20:32.457Z,16.20
2022-10-29T11:23:29.184Z,18.15
2022-10-29T11:26:37.920Z,18.05
2022-10-29T11:29:25.996Z,16.30
2022-10-29T11:32:00.894Z,16.50
2022-10-29T11:34:42.836Z,20.15
2022-10-29T11:37:26.321Z,17.08
2022-10-29T11:40:02.111Z,18.52
2022-10-29T11:42:29.030Z,19.05
2022-10-29T11:44:58.628Z,17.48
2022-10-29T11:47:29.940Z,15.65
2022-10-29T11:50:06.682Z,18.48
2022-10-29T11:52:39.692Z,17.52
2022-10-29T11:55:31.158Z,20.02
2022-10-29T11:58:10.278Z,18.35
2022-10-29T12:01:25.160Z,16.80
2022-10-29T12:04:04.094Z,19.08
2022-10-29T12:07:11.231Z,16.40
2022-10-29T12:10:08.926Z,18.42
2022-10-29T12:12:53.116Z,19.23
2022-10-29T12:15:26.955Z,17.08
2022-10-29T12:18:08.929Z,20.23
2022-10-29T12:20:55.302Z,19.20
2022-10-29T12:23:28.826Z,21.20
2022-10-29T12:26:00.255Z,18.42
2022-10-29T12:28:45.932Z,18.62
2022-10-29T12:31:21.200Z,21.58
2022-10-29T12:34:26.239Z,18.45
2022-10-29T12:37:12.150Z,20.75
2022-10-29T12:39:49.605Z,20.33
2022-10-29T12:42:17.906Z,18.67
2022-10-29T12:45:03.538Z,20.25
2022-10-29T12:47:40.786Z,20.77
2022-10-29T12:52:53.881Z,19.15
2022-10-29T12:55:21.376Z,22.83
2022-10-29T12:57:48.247Z,20.55
2022-10-29T13:00:23.996Z,21.25
2022-10-29T13:02:55.483Z,20.52
2022-10-29T13:05:36.405Z,20.95
2022-10-29T13:08:03.191Z,20.45
2022-10-29T13:10:33.098Z,20.05
2022-10-29T13:12:59.953Z,19.83
2022-10-29T13:15:32.147Z,22.58
2022-10-29T13:18:05.242Z,21.35
2022-10-29T13:20:37.969Z,19.48
2022-10-29T13:23:24.765Z,20.50
2022-10-29T13:25:52.975Z,21.10
2022-10-29T13:28:19.730Z,21.37
2022-10-29T13:30:54.411Z,20.85
2022-10-29T13:33:24.291Z,23.02
2022-10-29T13:36:01.783Z,21.08
2022-10-29T13:39:04.603Z,25.88
2022-10-29T13:41:43.195Z,20.55
2022-10-29T13:44:26.547Z,25.37
2022-10-29T13:47:01.225Z,22.15
2022-10-29T13:49:32.945Z,22.52
2022-10-29T13:52:13.247Z,22.30
2022-10-29T13:54:59.062Z,23.73
2022-10-29T13:57:32.902Z,23.90
2022-10-29T14:00:18.510Z,23.77
2022-10-29T14:02:54.326Z,23.77
2022-10-29T14:05:23.501Z,23.73
2022-10-29T14:07:59.118Z,24.90
2022-10-29T14:10:35.844Z,21.42
2022-10-29T14:13:30.640Z,25.67
2022-10-29T14:16:06.691Z,23.17
2022-10-29T14:18:36.698Z,19.87
2022-10-29T14:21:05.862Z,21.65
2022-10-29T14:23:33.406Z,22.77
2022-10-29T14:26:04.067Z,21.37
2022-10-29T14:28:32.813Z,23.20
2022-10-29T14:30:59.598Z,22.42
2022-10-29T14:33:31.904Z,22.30
2022-10-29T14:36:23.313Z,23.42
2022-10-29T14:38:53.527Z,22.80
2022-10-29T14:41:20.782Z,21.75
2022-10-29T14:44:02.152Z,23.67
2022-10-29T14:46:30.826Z,24.20
2022-10-29T14:49:12.838Z,23.73
2022-10-29T14:51:50.945Z,22.27
2022-10-29T14:54:22.435Z,21.55
2022-10-29T14:56:53.303Z,22.42
2022-10-29T14:59:25.015Z,23.62
2022-10-29T15:02:05.773Z,27.52
2022-10-29T15:04:49.934Z,24.60
2022-10-29T15:07:35.472Z,22.95
2022-10-29T15:10:09.422Z,27.35
2022-10-29T15:12:38.488Z,25.33
2022-10-29T15:15:22.858Z,26.70
2022-10-29T15:18:07.843Z,24.92
2022-10-29T15:20:45.713Z,25.02
2022-10-29T15:23:24.698Z,26.98
2022-10-29T15:25:54.501Z,26.80
2022-10-29T15:28:26.843Z,26.80
2022-10-29T15:30:54.432Z,29.02
2022-10-29T15:33:22.941Z,28.90
2022-10-29T15:35:53.790Z,26.42
2022-10-29T15:38:35.615Z,27.85
2022-10-29T15:41:08.414Z,28.27
2022-10-29T15:43:49.948Z,28.55
2022-10-29T15:46:24.254Z,29.87
2022-10-29T15:48:51.250Z,31.12
2022-10-29T15:51:19.209Z,32.97
2022-10-29T15:53:46.060Z,31.48
2022-10-29T15:56:13.757Z,31.90
2022-10-29T15:58:40.861Z,34.53
2022-10-29T16:01:08.366Z,35.53
2022-10-29T16:03:39.349Z,37.33
2022-10-29T16:06:07.944Z,38.45
2022-10-29T16:08:38.461Z,33.65
2022-10-29T16:11:10.950Z,35.70
2022-10-29T16:13:37.999Z,36.30
2022-10-29T16:16:05.354Z,36.58
2022-10-29T16:18:32.206Z,41.33
2022-10-29T16:21:01.442Z,47.88
2022-10-29T16:23:28.326Z,37.22
2022-10-29T16:25:55.176Z,39.75
2022-10-29T16:28:22.050Z,39.85
2022-10-29T16:30:53.343Z,41.80
2022-10-29T16:33:20.365Z,41.25
2022-10-29T16:35:47.284Z,45.05
2022-10-29T16:38:14.234Z,39.17
2022-10-29T16:40:42.837Z,47.00
2022-10-29T16:43:09.956Z,42.62
2022-10-29T16:45:37.157Z,38.60
2022-10-29T16:48:04.118Z,42.35
2022-10-29T16:50:33.070Z,41.47
2022-10-29T16:53:01.906Z,37.05
2022-10-29T16:55:29.601Z,37.28
2022-10-29T16:57:57.120Z,39.58
2022-10-29T17:00:26.136Z,41.20
2022-10-29T17:02:53.250Z,39.63
2022-10-29T17:05:20.105Z,38.70
2022-10-29T17:07:47.018Z,38.08
2022-10-29T17:10:13.868Z,36.92
2022-10-29T17:12:40.733Z,37.28
2022-10-29T17:15:07.965Z,40.42
2022-10-29T17:17:34.826Z,33.50
2022-10-29T17:20:01.688Z,40.72
2022-10-29T17:22:28.543Z,41.42
2022-10-29T17:24:55.448Z,41.20
2022-10-29T17:27:22.369Z,46.45
2022-10-29T17:29:49.319Z,39.95
2022-10-29T17:32:16.720Z,39.10
2022-10-29T17:34:43.558Z,35.22
2022-10-29T17:37:11.485Z,38.25
2022-10-29T17:39:38.931Z,38.65
2022-10-29T17:42:05.964Z,35.13
2022-10-29T17:44:34.080Z,39.35
2022-10-29T17:47:00.991Z,38.30
2022-10-29T17:49:28.291Z,37.33
2022-10-29T17:51:55.138Z,42.58
2022-10-29T17:54:22.255Z,45.05
2022-10-29T17:56:49.295Z,41.67
2022-10-29T17:59:16.106Z,41.30
2022-10-29T18:01:44.316Z,45.92
2022-10-29T18:04:11.399Z,36.88
2022-10-29T18:06:38.234Z,34.78
2022-10-29T18:09:05.200Z,31.48
2022-10-29T18:11:32.071Z,38.58
2022-10-29T18:13:58.888Z,40.10
2022-10-29T18:16:27.751Z,41.63
2022-10-29T18:19:02.136Z,43.00
2022-10-29T18:21:29.902Z,45.88
2022-10-29T18:23:56.880Z,42.55
2022-10-29T18:26:31.975Z,40.28
2022-10-29T18:29:00.600Z,42.05
2022-10-29T18:31:30.666Z,42.10
2022-10-29T18:33:58.890Z,39.17
2022-10-29T18:36:25.852Z,37.95
2022-10-29T18:38:54.407Z,42.50
2022-10-29T18:41:21.943Z,37.38
2022-10-29T18:43:48.861Z,40.80
2022-10-29T18:46:16.106Z,41.60
2022-10-29T18:48:46.426Z,39.10
2022-10-29T18:51:21.806Z,37.60
2022-10-29T18:53:48.662Z,38.13
2022-10-29T18:56:17.874Z,39.03
2022-10-29T18:58:45.196Z,38.72
2022-10-29T19:01:14.716Z,37.83
2022-10-29T19:03:41.944Z,35.92
2022-10-29T19:06:12.630Z,37.53
2022-10-29T19:08:41.679Z,38.17
2022-10-29T19:11:10.803Z,34.38
2022-10-29T19:13:37.733Z,35.13
2022-10-29T19:16:09.621Z,33.88
2022-10-29T19:18:37.118Z,32.00
2022-10-29T19:21:09.206Z,33.90
2022-10-29T19:23:36.086Z,31.50
2022-10-29T19:26:07.548Z,32.78
2022-10-29T19:28:35.138Z,29.00
2022-10-29T19:31:06.103Z,30.73
2022-10-29T19:33:33.335Z,25.05
2022-10-29T19:36:00.899Z,26.60
2022-10-29T19:38:28.330Z,27.20
2022-10-29T19:40:58.497Z,27.30
2022-10-29T19:43:26.211Z,25.15
2022-10-29T19:45:53.534Z,27.73
2022-10-29T19:48:20.499Z,26.02
2022-10-29T19:50:53.969Z,25.77
2022-10-29T19:53:21.249Z,26.83
2022-10-29T19:55:50.633Z,27.58
2022-10-29T19:58:18.224Z,28.85
2022-10-29T20:00:45.521Z,39.53
2022-10-29T20:03:13.395Z,38.83
2022-10-29T20:05:41.139Z,91.85
2022-10-29T20:08:11.435Z,95.07
2022-10-29T20:10:41.734Z,73.65
2022-10-29T20:13:08.646Z,81.03
2022-10-29T20:15:35.520Z,106.45
2022-10-29T20:18:02.374Z,117.20
2022-10-29T20:20:29.245Z,90.47
2022-10-29T20:22:57.078Z,74.12
2022-10-29T20:25:24.374Z,90.47
2022-10-29T20:27:51.328Z,74.20
2022-10-29T20:30:18.311Z,79.85
2022-10-29T20:32:45.168Z,99.47
2022-10-29T20:35:12.019Z,96.55
2022-10-29T20:37:38.816Z,81.10
2022-10-29T20:40:06.075Z,60.35
2022-10-29T20:42:32.954Z,50.88
2022-10-29T20:44:59.814Z,46.83
2022-10-29T20:47:26.729Z,49.28
2022-10-29T20:49:53.543Z,44.28
2022-10-29T20:52:20.365Z,58.08
2022-10-29T20:54:47.248Z,55.70
2022-10-29T20:57:14.126Z,49.13
2022-10-29T20:59:42.106Z,67.28
2022-10-29T21:02:11.974Z,55.33
2022-10-29T21:04:39.292Z,82.97
2022-10-29T21:07:07.866Z,63.35
2022-10-29T21:09:34.891Z,74.45
2022-10-29T21:12:01.733Z,50.60
2022-10-29T21:14:29.768Z,39.08
2022-10-29T21:16:56.734Z,37.80
2022-10-29T21:19:24.239Z,40.25
2022-10-29T21:21:51.076Z,60.30
2022-10-29T21:24:18.313Z,62.92
2022-10-29T21:26:45.163Z,120.65
2022-10-29T21:29:11.992Z,113.00
2022-10-29T21:31:38.866Z,132.32
2022-10-29T21:34:05.738Z,110.15
2022-10-29T21:36:32.547Z,112.25
2022-10-29T21:38:59.403Z,121.30
2022-10-29T21:41:26.267Z,120.62
2022-10-29T21:43:53.282Z,120.95
2022-10-29T21:46:20.149Z,145.38
2022-10-29T21:48:47.011Z,101.90
2022-10-29T21:51:15.207Z,108.10
2022-10-29T21:53:42.026Z,158.12
2022-10-29T21:56:10.889Z,106.32
2022-10-29T21:58:37.822Z,122.45
2022-10-29T22:01:10.443Z,85.85
2022-10-29T22:03:38.935Z,87.97
2022-10-29T22:06:08.211Z,76.40
2022-10-29T22:08:35.316Z,89.65
2022-10-29T22:11:02.439Z,96.25
2022-10-29T22:13:30.225Z,80.15
2022-10-29T22:15:57.075Z,89.25
2022-10-29T22:18:24.722Z,96.15
2022-10-29T22:21:09.122Z,104.57
2022-10-29T22:23:36.217Z,65.62
2022-10-29T22:26:03.057Z,74.15
2022-10-29T22:28:29.946Z,115.82
2022-10-29T22:31:01.264Z,98.57
2022-10-29T22:33:28.854Z,100.20
2022-10-29T22:35:55.929Z,113.55
2022-10-29T22:38:22.826Z,82.45
2022-10-29T22:40:49.698Z,89.75
2022-10-29T22:43:16.566Z,86.10
2022-10-29T22:45:45.638Z,70.22
2022-10-29T22:48:12.625Z,107.40
2022-10-29T22:50:39.469Z,113.80
2022-10-29T22:53:06.365Z,151.98
2022-10-29T22:55:33.240Z,127.68
2022-10-29T22:58:00.124Z,89.78
2022-10-29T23:00:26.945Z,127.65
2022-10-29T23:02:53.796Z,100.03
2022-10-29T23:05:20.679Z,107.65
2022-10-29T23:07:47.758Z,97.78
2022-10-29T23:10:14.705Z,68.05
2022-10-29T23:12:41.569Z,114.53
2022-10-29T23:15:08.851Z,132.10
2022-10-29T23:17:35.735Z,82.97
2022-10-29T23:20:02.686Z,97.65
2022-10-29T23:22:29.545Z,149.15
2022-10-29T23:24:56.384Z,136.62
2022-10-29T23:27:23.257Z,133.82
2022-10-29T23:29:50.096Z,116.88
2022-10-29T23:32:16.950Z,83.18
2022-10-29T23:34:43.812Z,93.07
2022-10-29T23:37:10.695Z,106.25
2022-10-29T23:39:37.612Z,124.57
2022-10-29T23:42:04.633Z,105.37
2022-10-29T23:44:31.466Z,82.70
2022-10-29T23:46:58.305Z,94.90
2022-10-29T23:49:25.180Z,77.80
2022-10-29T23:51:52.073Z,63.50
2022-10-29T23:54:18.903Z,85.38
2022-10-29T23:56:45.793Z,84.15
2022-10-29T23:59:12.627Z,61.30
